createdAt,value
2022-08-14T00:02:31.517Z,24.07
2022-08-14T00:05:00.293Z,24.03
2022-08-14T00:07:28.964Z,24.01
2022-08-14T00:10:50.330Z,23.99
2022-08-14T00:12:53.331Z,23.97
2022-08-14T00:15:29.627Z,23.94
2022-08-14T00:18:00.170Z,23.91
2022-08-14T00:20:35.947Z,23.88
2022-08-14T00:23:16.617Z,23.85
2022-08-14T00:25:54.016Z,23.83
2022-08-14T00:28:32.574Z,23.80
2022-08-14T00:31:05.124Z,23.78
2022-08-14T00:33:52.084Z,23.76
2022-08-14T00:36:37.003Z,23.72
2022-08-14T00:39:18.216Z,23.69
2022-08-14T00:41:48.346Z,23.65
2022-08-14T00:44:21.512Z,23.63
2022-08-14T00:47:01.027Z,23.60
2022-08-14T00:49:37.779Z,23.58
2022-08-14T00:52:14.147Z,23.54
2022-08-14T00:54:58.066Z,23.51
2022-08-14T00:57:28.746Z,23.47
2022-08-14T00:59:57.682Z,23.44
2022-08-14T01:02:28.251Z,23.41
2022-08-14T01:05:05.085Z,23.37
2022-08-14T01:07:47.296Z,23.34
2022-08-14T01:10:22.499Z,23.32
2022-08-14T01:12:51.934Z,23.30
2022-08-14T01:15:31.642Z,23.29
2022-08-14T01:18:28.785Z,23.26
2022-08-14T01:21:09.182Z,23.23
2022-08-14T01:23:47.021Z,23.20
2022-08-14T01:26:23.566Z,23.18
2022-08-14T01:29:06.666Z,23.16
2022-08-14T01:31:42.326Z,23.13
2022-08-14T01:35:18.819Z,23.12
2022-08-14T01:36:59.320Z,23.08
2022-08-14T01:39:32.253Z,23.05
2022-08-14T01:42:01.478Z,23.03
2022-08-14T01:44:33.655Z,23.02
2022-08-14T01:47:21.891Z,22.99
2022-08-14T01:50:00.048Z,22.98
2022-08-14T01:52:58.719Z,22.96
2022-08-14T01:55:29.408Z,22.93
2022-08-14T01:58:18.848Z,22.91
2022-08-14T02:00:47.941Z,22.90
2022-08-14T02:03:17.274Z,22.87
2022-08-14T02:05:46.204Z,22.86
2022-08-14T02:08:16.088Z,22.84
2022-08-14T02:11:16.066Z,22.83
2022-08-14T02:13:50.624Z,22.80
2022-08-14T02:16:24.245Z,22.77
2022-08-14T02:18:57.498Z,22.75
2022-08-14T02:21:27.444Z,22.73
2022-08-14T02:23:57.377Z,22.71
2022-08-14T02:26:30.825Z,22.68
2022-08-14T02:29:03.445Z,22.67
2022-08-14T02:31:43.864Z,22.65
2022-08-14T02:34:22.384Z,22.64
2022-08-14T02:37:04.765Z,22.60
2022-08-14T02:39:36.961Z,22.59
2022-08-14T02:42:13.102Z,22.59
2022-08-14T02:44:49.320Z,22.57
2022-08-14T02:47:21.246Z,22.55
2022-08-14T02:49:56.765Z,22.56
2022-08-14T02:52:57.520Z,22.56
2022-08-14T02:55:20.440Z,22.57
2022-08-14T02:58:03.226Z,22.57
2022-08-14T03:00:35.632Z,22.57
2022-08-14T03:03:08.960Z,22.55
2022-08-14T03:05:41.099Z,22.50
2022-08-14T03:08:15.346Z,22.45
2022-08-14T03:10:49.235Z,22.53
2022-08-14T03:13:21.463Z,22.46
2022-08-14T03:15:56.099Z,22.52
2022-08-14T03:18:32.074Z,22.57
2022-08-14T03:21:03.833Z,22.63
2022-08-14T03:23:38.181Z,22.63
2022-08-14T03:26:12.723Z,22.66
2022-08-14T03:28:51.375Z,22.71
2022-08-14T03:31:26.150Z,22.74
2022-08-14T03:34:00.316Z,22.79
2022-08-14T03:37:38.474Z,22.81
2022-08-14T03:39:24.272Z,22.86
2022-08-14T03:41:59.946Z,22.90
2022-08-14T03:45:26.875Z,22.94
2022-08-14T03:47:22.832Z,22.98
2022-08-14T03:50:12.644Z,23.00
2022-08-14T03:52:55.986Z,23.03
2022-08-14T03:55:26.194Z,23.04
2022-08-14T03:57:56.039Z,23.07
2022-08-14T04:00:42.921Z,23.08
2022-08-14T04:03:23.585Z,23.07
2022-08-14T04:05:53.129Z,23.05
2022-08-14T04:08:29.176Z,23.05
2022-08-14T04:11:01.330Z,23.07
2022-08-14T04:13:31.900Z,23.07
2022-08-14T04:16:10.047Z,23.08
2022-08-14T04:18:43.712Z,23.09
2022-08-14T04:21:13.179Z,23.08
2022-08-14T04:23:43.959Z,23.07
2022-08-14T04:26:14.303Z,23.08
2022-08-14T04:29:08.008Z,23.09
2022-08-14T04:32:57.439Z,23.11
2022-08-14T04:34:27.842Z,23.12
2022-08-14T04:37:21.937Z,23.15
2022-08-14T04:40:08.751Z,23.12
2022-08-14T04:42:56.257Z,23.15
2022-08-14T04:45:25.861Z,23.17
2022-08-14T04:48:36.806Z,23.18
2022-08-14T04:51:05.235Z,23.20
2022-08-14T04:53:35.976Z,23.21
2022-08-14T04:56:30.018Z,23.23
2022-08-14T04:58:57.754Z,23.24
2022-08-14T05:01:27.209Z,23.26
2022-08-14T05:03:57.534Z,23.28
2022-08-14T05:06:37.678Z,23.29
2022-08-14T05:09:13.869Z,23.31
2022-08-14T05:11:44.289Z,23.35
2022-08-14T05:14:43.080Z,23.38
2022-08-14T05:17:02.440Z,23.45
2022-08-14T05:19:33.010Z,23.50
2022-08-14T05:22:16.855Z,23.54
2022-08-14T05:24:50.604Z,23.62
2022-08-14T05:27:22.942Z,23.61
2022-08-14T05:29:56.670Z,23.69
2022-08-14T05:32:27.152Z,23.76
2022-08-14T05:34:59.321Z,23.83
2022-08-14T05:37:29.821Z,23.88
2022-08-14T05:40:01.084Z,23.97
2022-08-14T05:42:34.005Z,24.00
2022-08-14T05:45:20.875Z,24.09
2022-08-14T05:47:50.715Z,24.17
2022-08-14T05:50:20.996Z,24.26
2022-08-14T05:52:51.501Z,24.35
2022-08-14T05:55:22.231Z,24.45
2022-08-14T05:57:59.499Z,24.53
2022-08-14T06:00:31.687Z,24.59
2022-08-14T06:03:07.338Z,24.65
2022-08-14T06:05:39.630Z,24.73
2022-08-14T06:08:31.469Z,24.80
2022-08-14T06:11:07.556Z,24.89
2022-08-14T06:13:45.359Z,24.95
2022-08-14T06:16:18.378Z,25.01
2022-08-14T06:18:52.583Z,25.09
2022-08-14T06:21:24.061Z,25.17
2022-08-14T06:23:53.022Z,25.24
2022-08-14T06:26:22.499Z,25.31
2022-08-14T06:28:52.022Z,25.40
2022-08-14T06:31:23.007Z,25.45
2022-08-14T06:35:02.717Z,25.51
2022-08-14T06:36:42.333Z,25.58
2022-08-14T06:39:10.981Z,25.64
2022-08-14T06:41:59.319Z,25.73
2022-08-14T06:44:30.616Z,25.77
2022-08-14T06:47:03.350Z,25.86
2022-08-14T06:49:40.089Z,25.93
2022-08-14T06:52:10.068Z,25.99
2022-08-14T06:54:43.955Z,26.06
2022-08-14T06:57:13.842Z,26.12
2022-08-14T06:59:43.193Z,26.21
2022-08-14T07:02:29.349Z,26.28
2022-08-14T07:05:17.051Z,26.34
2022-08-14T07:07:51.304Z,26.41
2022-08-14T07:10:25.009Z,26.49
2022-08-14T07:13:03.733Z,26.56
2022-08-14T07:15:39.697Z,26.63
2022-08-14T07:18:12.305Z,26.71
2022-08-14T07:20:42.145Z,26.78
2022-08-14T07:23:20.543Z,26.84
2022-08-14T07:25:51.377Z,26.91
2022-08-14T07:28:25.120Z,26.98
2022-08-14T07:31:05.283Z,27.03
2022-08-14T07:33:37.518Z,27.09
2022-08-14T07:36:26.922Z,27.17
2022-08-14T07:39:00.811Z,27.24
2022-08-14T07:41:35.614Z,27.28
2022-08-14T07:44:32.226Z,27.34
2022-08-14T07:46:53.931Z,27.42
2022-08-14T07:49:24.073Z,27.49
2022-08-14T07:51:53.028Z,27.54
2022-08-14T07:54:30.300Z,27.60
2022-08-14T07:57:00.648Z,27.67
2022-08-14T07:59:41.096Z,27.75
2022-08-14T08:02:17.448Z,27.80
2022-08-14T08:04:53.001Z,27.85
2022-08-14T08:07:30.211Z,27.92
2022-08-14T08:10:46.658Z,27.95
2022-08-14T08:13:14.833Z,28.05
2022-08-14T08:15:46.453Z,28.10
2022-08-14T08:18:20.554Z,28.18
2022-08-14T08:21:00.156Z,28.24
2022-08-14T08:23:40.917Z,28.30
2022-08-14T08:26:20.777Z,28.39
2022-08-14T08:28:57.257Z,28.45
2022-08-14T08:31:32.912Z,28.49
2022-08-14T08:34:06.511Z,28.55
2022-08-14T08:36:42.736Z,28.57
2022-08-14T08:39:21.965Z,28.60
2022-08-14T08:41:53.890Z,28.67
2022-08-14T08:44:31.828Z,28.71
2022-08-14T08:47:06.533Z,28.80
2022-08-14T08:49:48.707Z,28.96
2022-08-14T08:52:31.686Z,29.07
2022-08-14T08:55:04.362Z,29.15
2022-08-14T08:57:38.101Z,29.21
2022-08-14T09:00:25.683Z,29.41
2022-08-14T09:02:57.725Z,29.50
2022-08-14T09:05:26.845Z,29.69
2022-08-14T09:07:56.382Z,29.96
2022-08-14T09:10:25.916Z,30.08
2022-08-14T09:12:57.552Z,30.23
2022-08-14T09:15:26.250Z,30.44
2022-08-14T09:18:05.524Z,30.78
2022-08-14T09:20:34.604Z,31.18
2022-08-14T09:23:06.451Z,31.34
2022-08-14T09:25:58.753Z,31.64
2022-08-14T09:28:26.612Z,31.81
2022-08-14T09:30:58.667Z,31.97
2022-08-14T09:34:02.160Z,32.19
2022-08-14T09:37:09.177Z,32.78
2022-08-14T09:39:54.028Z,32.99
2022-08-14T09:42:33.551Z,33.37
2022-08-14T09:45:21.080Z,33.99
2022-08-14T09:47:51.854Z,34.13
2022-08-14T09:50:26.023Z,34.41
2022-08-14T09:52:59.227Z,34.07
2022-08-14T09:55:36.821Z,34.21
2022-08-14T09:58:15.007Z,33.82
2022-08-14T10:00:52.758Z,33.66
2022-08-14T10:03:34.257Z,33.66
2022-08-14T10:06:08.763Z,33.58
2022-08-14T10:08:51.062Z,33.42
2022-08-14T10:11:23.723Z,33.38
2022-08-14T10:13:55.759Z,33.33
2022-08-14T10:16:33.522Z,33.31
2022-08-14T10:19:09.534Z,33.40
2022-08-14T10:23:11.330Z,33.60
2022-08-14T10:24:36.839Z,33.45
2022-08-14T10:27:16.479Z,33.29
2022-08-14T10:29:46.326Z,33.13
2022-08-14T10:32:18.211Z,33.10
2022-08-14T10:35:09.269Z,33.26
2022-08-14T10:37:46.871Z,33.37
2022-08-14T10:40:37.506Z,33.69
2022-08-14T10:43:18.854Z,33.90
2022-08-14T10:46:04.083Z,34.05
2022-08-14T10:49:00.333Z,33.95
2022-08-14T10:51:34.161Z,33.95
2022-08-14T10:54:26.031Z,33.88
2022-08-14T10:56:58.540Z,33.71
2022-08-14T10:59:31.342Z,33.43
2022-08-14T11:02:04.875Z,33.26
2022-08-14T11:04:35.766Z,33.40
2022-08-14T11:07:19.290Z,33.45
2022-08-14T11:09:55.722Z,33.26
2022-08-14T11:12:34.419Z,32.79
2022-08-14T11:15:12.717Z,32.70
2022-08-14T11:17:46.073Z,32.65
2022-08-14T11:20:18.043Z,32.55
2022-08-14T11:22:55.656Z,32.17
2022-08-14T11:25:43.257Z,31.84
2022-08-14T11:28:19.038Z,31.80
2022-08-14T11:30:54.387Z,31.76
2022-08-14T11:33:24.739Z,31.61
2022-08-14T11:35:59.690Z,31.45
2022-08-14T11:38:29.315Z,31.21
2022-08-14T11:41:00.276Z,31.21
2022-08-14T11:43:30.678Z,31.15
2022-08-14T11:46:03.519Z,30.94
2022-08-14T11:49:01.789Z,30.85
2022-08-14T11:51:30.664Z,30.82
2022-08-14T11:54:08.413Z,30.63
2022-08-14T11:56:39.865Z,30.64
2022-08-14T11:59:16.794Z,30.65
2022-08-14T12:01:46.351Z,30.51
2022-08-14T16:17:00.758Z,28.50
2022-08-14T16:19:32.641Z,28.53
2022-08-14T16:22:59.137Z,28.52
2022-08-14T16:25:04.668Z,28.53
2022-08-14T16:27:39.258Z,28.54
2022-08-14T16:30:25.395Z,28.54
2022-08-14T16:33:01.913Z,28.54
2022-08-14T16:35:42.310Z,28.57
2022-08-14T16:38:44.775Z,28.60
2022-08-14T16:41:37.535Z,28.61
2022-08-14T16:44:13.780Z,28.62
2022-08-14T16:47:00.406Z,28.61
2022-08-14T16:49:35.319Z,28.61
2022-08-14T16:52:26.541Z,28.60
2022-08-14T16:55:11.115Z,28.57
2022-08-14T16:57:50.124Z,28.58
2022-08-14T17:00:32.593Z,28.55
2022-08-14T17:03:08.568Z,28.53
2022-08-14T17:05:43.719Z,28.52
2022-08-14T17:08:33.278Z,28.50
2022-08-14T17:11:11.089Z,28.49
2022-08-14T17:13:58.189Z,28.46
2022-08-14T17:16:37.737Z,28.43
2022-08-14T17:19:13.546Z,28.38
2022-08-14T17:21:47.340Z,28.32
2022-08-14T17:24:57.701Z,28.23
2022-08-14T17:27:07.999Z,28.14
2022-08-14T17:29:44.302Z,28.10
2022-08-14T17:35:12.413Z,28.04
2022-08-14T17:37:55.774Z,28.03
2022-08-14T17:40:31.583Z,28.03
2022-08-14T17:43:02.473Z,28.00
2022-08-14T17:45:46.882Z,28.00
2022-08-14T17:49:10.514Z,27.93
2022-08-14T17:51:24.185Z,27.89
2022-08-14T17:54:02.654Z,27.89
2022-08-14T17:56:33.991Z,27.90
2022-08-14T17:59:07.241Z,27.80
2022-08-14T18:01:40.855Z,27.66
2022-08-14T18:04:25.016Z,27.61
2022-08-14T18:07:16.608Z,27.60
2022-08-14T18:09:57.143Z,27.43
2022-08-14T18:12:36.629Z,27.34
2022-08-14T18:15:14.311Z,27.30
2022-08-14T18:17:45.140Z,27.29
2022-08-14T18:21:23.626Z,27.25
2022-08-14T18:23:12.905Z,27.19
2022-08-14T18:25:49.796Z,27.13
2022-08-14T18:28:47.847Z,27.09
2022-08-14T18:31:42.345Z,27.12
2022-08-14T18:34:32.102Z,27.07
2022-08-14T18:37:18.024Z,27.04
2022-08-14T18:40:01.676Z,27.04
2022-08-14T18:42:46.604Z,26.99
2022-08-14T18:45:26.326Z,27.02
2022-08-14T18:48:50.552Z,27.05
2022-08-14T18:51:45.313Z,26.99
2022-08-14T18:54:33.231Z,26.97
2022-08-14T18:57:05.395Z,26.92
2022-08-14T18:59:43.144Z,26.87
2022-08-14T19:02:43.407Z,26.83
2022-08-14T19:05:14.315Z,26.84
2022-08-14T19:07:48.170Z,26.87
2022-08-14T19:10:31.928Z,26.90
2022-08-14T19:13:11.956Z,26.84
2022-08-14T19:15:45.627Z,26.81
2022-08-14T19:18:27.856Z,26.81
2022-08-14T19:20:59.042Z,26.85
2022-08-14T19:23:42.272Z,26.87
2022-08-14T19:26:35.281Z,26.84
2022-08-14T19:29:26.198Z,26.82
2022-08-14T19:32:27.874Z,26.79
2022-08-14T19:34:59.879Z,26.76
2022-08-14T19:37:52.618Z,26.71
2022-08-14T19:40:33.386Z,26.74
2022-08-14T19:43:09.088Z,26.72
2022-08-14T19:45:39.328Z,26.75
2022-08-14T19:48:16.007Z,26.77
2022-08-14T19:50:47.092Z,26.74
2022-08-14T19:53:17.719Z,26.69
2022-08-14T19:55:59.803Z,26.70
2022-08-14T19:58:53.986Z,26.64
2022-08-14T20:01:36.490Z,26.61
2022-08-14T20:04:46.726Z,26.63
2022-08-14T20:07:04.390Z,26.59
2022-08-14T20:11:06.479Z,26.60
2022-08-14T20:12:35.375Z,26.60
2022-08-14T20:15:15.567Z,26.59
2022-08-14T20:17:52.560Z,26.57
2022-08-14T20:20:30.667Z,26.57
2022-08-14T20:23:10.836Z,26.52
2022-08-14T20:25:45.613Z,26.52
2022-08-14T20:28:32.095Z,26.53
2022-08-14T20:31:22.274Z,26.55
2022-08-14T20:34:03.643Z,26.53
2022-08-14T20:36:33.957Z,26.50
2022-08-14T20:39:04.121Z,26.51
2022-08-14T20:41:34.232Z,26.51
2022-08-14T20:44:28.803Z,26.48
2022-08-14T20:47:01.122Z,26.46
2022-08-14T20:49:30.432Z,26.44
2022-08-14T20:52:19.712Z,26.42
2022-08-14T20:54:51.679Z,26.39
2022-08-14T20:57:20.630Z,26.37
2022-08-14T20:59:52.935Z,26.35
2022-08-14T21:02:46.694Z,26.33
2022-08-14T21:05:22.497Z,26.31
2022-08-14T21:08:09.667Z,26.24
2022-08-14T21:10:54.915Z,26.23
2022-08-14T21:14:20.849Z,26.22
2022-08-14T21:16:33.239Z,26.21
2022-08-14T21:19:05.945Z,26.19
2022-08-14T21:21:40.457Z,26.18
2022-08-14T21:24:38.965Z,26.16
2022-08-14T21:27:12.347Z,26.13
2022-08-14T21:29:53.957Z,26.08
2022-08-14T21:32:47.263Z,26.06
2022-08-14T21:35:23.033Z,26.03
2022-08-14T21:37:52.709Z,26.02
2022-08-14T21:40:40.888Z,25.99
2022-08-14T21:43:18.075Z,25.95
2022-08-14T21:45:53.587Z,25.93
2022-08-14T21:48:25.002Z,25.86
2022-08-14T21:51:01.641Z,25.83
2022-08-14T21:53:58.339Z,25.76
2022-08-14T21:56:37.327Z,25.69
2022-08-14T21:59:17.877Z,25.65
2022-08-14T22:01:59.434Z,25.63
2022-08-14T22:04:33.765Z,25.62
2022-08-14T22:07:07.256Z,25.61
2022-08-14T22:09:36.971Z,25.60
2022-08-14T22:12:08.456Z,25.53
2022-08-14T22:14:43.729Z,25.51
2022-08-14T22:17:16.192Z,25.50
2022-08-14T22:19:54.667Z,25.46
2022-08-14T22:22:26.674Z,25.44
2022-08-14T22:24:59.927Z,25.41
2022-08-14T22:27:32.222Z,25.40
2022-08-14T22:30:03.023Z,25.39
2022-08-14T22:32:56.946Z,25.36
2022-08-14T22:35:23.555Z,25.37
2022-08-14T22:38:34.899Z,25.35
2022-08-14T22:41:14.884Z,25.29
2022-08-14T22:43:35.051Z,25.28
2022-08-14T22:46:06.321Z,25.29
2022-08-14T22:48:45.331Z,25.30
2022-08-14T22:51:16.123Z,25.31
2022-08-14T22:53:51.683Z,25.30
2022-08-14T22:56:29.495Z,25.30
2022-08-14T22:59:01.375Z,25.29
2022-08-14T23:01:56.986Z,25.27
2022-08-14T23:04:35.906Z,25.26
2022-08-14T23:07:22.375Z,25.23
2022-08-14T23:10:31.675Z,25.23
2022-08-14T23:12:54.723Z,25.20
2022-08-14T23:15:29.853Z,25.17
2022-08-14T23:17:59.307Z,25.15
2022-08-14T23:20:29.252Z,25.14
2022-08-14T23:22:58.778Z,25.11
2022-08-14T23:25:44.573Z,25.09
2022-08-14T23:28:34.364Z,25.06
2022-08-14T23:31:14.270Z,25.01
2022-08-14T23:33:51.822Z,24.99
2022-08-14T23:36:32.783Z,24.96
2022-08-14T23:39:12.201Z,24.93
2022-08-14T23:41:53.085Z,24.90
2022-08-14T23:44:24.321Z,24.87
2022-08-14T23:46:57.195Z,24.83
2022-08-14T23:49:59.812Z,24.81
2022-08-14T23:52:50.784Z,24.78
2022-08-14T23:55:11.120Z,24.74
2022-08-14T23:57:43.880Z,24.72
